sensor_id;sensor_type;location;lat;lon;timestamp;pressure;altitude;pressure_sealevel;temperature;humidity
39449;BME280;25151;45.566;9.382;2023-02-01T00:00:58;100194.00;;;19.36;52.33
39449;BME280;25151;45.566;9.382;2023-02-01T00:03:58;100194.09;;;19.33;52.41
39449;BME280;25151;45.566;9.382;2023-02-01T00:06:59;100184.09;;;19.32;52.10
39449;BME280;25151;45.566;9.382;2023-02-01T00:10:01;100175.00;;;19.28;52.32
39449;BME280;25151;45.566;9.382;2023-02-01T00:13:01;100184.97;;;19.29;52.24
39449;BME280;25151;45.566;9.382;2023-02-01T00:16:06;100184.53;;;19.30;52.21
39449;BME280;25151;45.566;9.382;2023-02-01T00:19:11;100186.63;;;19.26;52.17
39449;BME280;25151;45.566;9.382;2023-02-01T00:22:14;100182.25;;;19.25;52.19
39449;BME280;25151;45.566;9.382;2023-02-01T00:25:14;100179.81;;;19.27;52.04
39449;BME280;25151;45.566;9.382;2023-02-01T00:28:15;100179.47;;;19.25;52.24
39449;BME280;25151;45.566;9.382;2023-02-01T00:31:16;100177.06;;;19.24;52.00
39449;BME280;25151;45.566;9.382;2023-02-01T00:34:17;100177.88;;;19.24;52.29
39449;BME280;25151;45.566;9.382;2023-02-01T00:37:18;100175.06;;;19.24;52.12
39449;BME280;25151;45.566;9.382;2023-02-01T00:40:18;100174.28;;;19.24;52.10
39449;BME280;25151;45.566;9.382;2023-02-01T00:43:19;100169.19;;;19.19;51.89
39449;BME280;25151;45.566;9.382;2023-02-01T00:46:20;100162.38;;;19.20;51.87
39449;BME280;25151;45.566;9.382;2023-02-01T00:49:22;100165.19;;;19.20;51.83
39449;BME280;25151;45.566;9.382;2023-02-01T00:52:25;100161.25;;;19.17;51.78
39449;BME280;25151;45.566;9.382;2023-02-01T00:55:26;100159.25;;;19.17;51.89
39449;BME280;25151;45.566;9.382;2023-02-01T00:58:27;100157.69;;;19.16;51.84
39449;BME280;25151;45.566;9.382;2023-02-01T01:01:28;100172.00;;;19.19;51.78
39449;BME280;25151;45.566;9.382;2023-02-01T01:04:28;100163.28;;;19.16;51.85
39449;BME280;25151;45.566;9.382;2023-02-01T01:07:29;100147.34;;;19.13;51.78
39449;BME280;25151;45.566;9.382;2023-02-01T01:10:30;100162.47;;;19.16;51.62
39449;BME280;25151;45.566;9.382;2023-02-01T01:13:30;100156.53;;;19.14;51.77
39449;BME280;25151;45.566;9.382;2023-02-01T01:16:32;100155.75;;;19.13;51.77
39449;BME280;25151;45.566;9.382;2023-02-01T01:19:33;100156.16;;;19.12;52.06
39449;BME280;25151;45.566;9.382;2023-02-01T01:22:33;100162.91;;;19.14;51.97
39449;BME280;25151;45.566;9.382;2023-02-01T01:25:39;100157.75;;;19.13;51.81
39449;BME280;25151;45.566;9.382;2023-02-01T01:28:40;100150.63;;;19.08;51.80
39449;BME280;25151;45.566;9.382;2023-02-01T01:31:41;100165.34;;;19.12;51.94
39449;BME280;25151;45.566;9.382;2023-02-01T01:34:41;100172.16;;;19.11;51.72
39449;BME280;25151;45.566;9.382;2023-02-01T01:37:42;100162.63;;;19.09;51.73
39449;BME280;25151;45.566;9.382;2023-02-01T01:40:46;100156.22;;;19.08;51.69
39449;BME280;25151;45.566;9.382;2023-02-01T01:43:59;100155.88;;;19.06;51.93
39449;BME280;25151;45.566;9.382;2023-02-01T01:46:59;100150.28;;;19.06;51.85
39449;BME280;25151;45.566;9.382;2023-02-01T01:50:02;100156.31;;;19.05;51.73
39449;BME280;25151;45.566;9.382;2023-02-01T01:53:04;100159.03;;;19.08;51.83
39449;BME280;25151;45.566;9.382;2023-02-01T01:56:06;100147.56;;;19.03;51.77
39449;BME280;25151;45.566;9.382;2023-02-01T01:59:07;100153.09;;;19.06;51.68
39449;BME280;25151;45.566;9.382;2023-02-01T02:02:09;100145.56;;;19.03;51.76
39449;BME280;25151;45.566;9.382;2023-02-01T02:05:11;100147.13;;;19.04;51.75
39449;BME280;25151;45.566;9.382;2023-02-01T02:08:13;100127.28;;;18.99;51.87
39449;BME280;25151;45.566;9.382;2023-02-01T02:11:16;100141.97;;;19.03;51.90
39449;BME280;25151;45.566;9.382;2023-02-01T02:14:19;100132.44;;;19.00;52.06
39449;BME280;25151;45.566;9.382;2023-02-01T02:17:38;100133.66;;;18.99;51.84
39449;BME280;25151;45.566;9.382;2023-02-01T02:21:10;100134.03;;;19.01;51.78
39449;BME280;25151;45.566;9.382;2023-02-01T02:34:52;100125.28;;;18.99;51.86
39449;BME280;25151;45.566;9.382;2023-02-01T02:38:04;100122.94;;;18.98;51.85
39449;BME280;25151;45.566;9.382;2023-02-01T02:45:27;100123.34;;;18.96;51.64
39449;BME280;25151;45.566;9.382;2023-02-01T02:49:39;100118.97;;;18.95;51.57
39449;BME280;25151;45.566;9.382;2023-02-01T02:52:17;100118.97;;;18.95;51.87
39449;BME280;25151;45.566;9.382;2023-02-01T02:55:39;100118.19;;;18.95;51.74
39449;BME280;25151;45.566;9.382;2023-02-01T02:58:42;100111.81;;;18.94;51.64
39449;BME280;25151;45.566;9.382;2023-02-01T03:02:02;100107.47;;;18.93;51.70
39449;BME280;25151;45.566;9.382;2023-02-01T03:05:21;100111.03;;;18.94;51.64
39449;BME280;25151;45.566;9.382;2023-02-01T03:08:27;100108.31;;;18.90;51.93
39449;BME280;25151;45.566;9.382;2023-02-01T03:11:28;100113.03;;;18.93;51.86
39449;BME280;25151;45.566;9.382;2023-02-01T03:14:53;100105.53;;;18.90;51.63
39449;BME280;25151;45.566;9.382;2023-02-01T03:17:55;100096.75;;;18.88;51.81
39449;BME280;25151;45.566;9.382;2023-02-01T03:20:58;100099.22;;;18.86;51.76
39449;BME280;25151;45.566;9.382;2023-02-01T03:24:14;100112.34;;;18.89;51.51
39449;BME280;25151;45.566;9.382;2023-02-01T03:27:34;100107.09;;;18.91;51.67
39449;BME280;25151;45.566;9.382;2023-02-01T03:30:40;100106.03;;;18.85;51.57
39449;BME280;25151;45.566;9.382;2023-02-01T03:33:42;100119.13;;;18.88;51.83
39449;BME280;25151;45.566;9.382;2023-02-01T03:36:52;100124.72;;;18.88;51.72
39449;BME280;25151;45.566;9.382;2023-02-01T03:40:05;100118.00;;;18.85;51.66
39449;BME280;25151;45.566;9.382;2023-02-01T03:43:10;100117.63;;;18.83;51.74
39449;BME280;25151;45.566;9.382;2023-02-01T03:46:18;100128.38;;;18.85;51.82
39449;BME280;25151;45.566;9.382;2023-02-01T03:49:35;100119.63;;;18.83;51.77
39449;BME280;25151;45.566;9.382;2023-02-01T03:52:47;100120.41;;;18.83;51.81
39449;BME280;25151;45.566;9.382;2023-02-01T03:55:51;100119.28;;;18.81;51.53
39449;BME280;25151;45.566;9.382;2023-02-01T03:58:53;100117.63;;;18.83;51.82
39449;BME280;25151;45.566;9.382;2023-02-01T04:02:00;100128.00;;;18.83;51.75
39449;BME280;25151;45.566;9.382;2023-02-01T04:05:00;100114.47;;;18.81;51.70
39449;BME280;25151;45.566;9.382;2023-02-01T04:08:01;100113.69;;;18.81;51.65
39449;BME280;25151;45.566;9.382;2023-02-01T04:11:01;100112.47;;;18.82;51.61
39449;BME280;25151;45.566;9.382;2023-02-01T04:14:02;100110.91;;;18.81;51.45
39449;BME280;25151;45.566;9.382;2023-02-01T04:17:04;100116.50;;;18.81;51.71
39449;BME280;25151;45.566;9.382;2023-02-01T04:20:05;100120.06;;;18.81;51.88
39449;BME280;25151;45.566;9.382;2023-02-01T04:23:06;100123.28;;;18.80;51.76
39449;BME280;25151;45.566;9.382;2023-02-01T04:26:06;100123.28;;;18.80;51.86
39449;BME280;25151;45.566;9.382;2023-02-01T04:29:09;100134.44;;;18.80;51.63
39449;BME280;25151;45.566;9.382;2023-02-01T04:32:09;100136.13;;;18.77;51.64
39449;BME280;25151;45.566;9.382;2023-02-01T04:35:10;100133.31;;;18.77;51.76
39449;BME280;25151;45.566;9.382;2023-02-01T04:38:11;100134.09;;;18.78;51.79
39449;BME280;25151;45.566;9.382;2023-02-01T04:41:12;100128.59;;;18.74;51.64
39449;BME280;25151;45.566;9.382;2023-02-01T04:44:14;100133.38;;;18.74;52.02
39449;BME280;25151;45.566;9.382;2023-02-01T04:47:15;100133.72;;;18.76;51.63
39449;BME280;25151;45.566;9.382;2023-02-01T04:50:16;100132.16;;;18.75;51.62
39449;BME280;25151;45.566;9.382;2023-02-01T04:53:17;100141.00;;;18.73;51.61
39449;BME280;25151;45.566;9.382;2023-02-01T04:56:18;100144.13;;;18.75;51.60
39449;BME280;25151;45.566;9.382;2023-02-01T04:59:18;100148.56;;;18.73;51.72
39449;BME280;25151;45.566;9.382;2023-02-01T05:02:19;100138.59;;;18.72;51.41
39449;BME280;25151;45.566;9.382;2023-02-01T05:05:19;100149.00;;;18.71;51.75
39449;BME280;25151;45.566;9.382;2023-02-01T05:08:20;100150.16;;;18.74;51.66
39449;BME280;25151;45.566;9.382;2023-02-01T05:11:22;100162.19;;;18.71;51.60
39449;BME280;25151;45.566;9.382;2023-02-01T05:14:41;100158.53;;;18.74;51.57
39449;BME280;25151;45.566;9.382;2023-02-01T05:17:42;100156.19;;;18.68;51.61
39449;BME280;25151;45.566;9.382;2023-02-01T05:20:42;100160.19;;;18.67;51.60
39449;BME280;25151;45.566;9.382;2023-02-01T05:23:43;100162.59;;;18.69;51.75
39449;BME280;25151;45.566;9.382;2023-02-01T05:27:02;100155.00;;;18.70;51.72
39449;BME280;25151;45.566;9.382;2023-02-01T05:30:04;100152.19;;;18.70;51.60
39449;BME280;25151;45.566;9.382;2023-02-01T05:33:05;100152.19;;;18.70;51.68
39449;BME280;25151;45.566;9.382;2023-02-01T05:36:05;100149.81;;;18.68;51.83
39449;BME280;25151;45.566;9.382;2023-02-01T05:39:06;100150.59;;;18.68;51.77
39449;BME280;25151;45.566;9.382;2023-02-01T05:42:07;100149.03;;;18.67;51.67
39449;BME280;25151;45.566;9.382;2023-02-01T05:45:08;100149.09;;;18.64;51.34
39449;BME280;25151;45.566;9.382;2023-02-01T05:48:08;100160.19;;;18.67;51.72
39449;BME280;25151;45.566;9.382;2023-02-01T05:51:10;100157.06;;;18.65;51.51
39449;BME280;25151;45.566;9.382;2023-02-01T05:54:11;100153.91;;;18.63;51.55
39449;BME280;25151;45.566;9.382;2023-02-01T05:57:11;100164.22;;;18.66;51.64
39449;BME280;25151;45.566;9.382;2023-02-01T06:00:13;100160.25;;;18.64;51.62
39449;BME280;25151;45.566;9.382;2023-02-01T06:03:14;100157.84;;;18.66;51.58
39449;BME280;25151;45.566;9.382;2023-02-01T06:06:14;100151.47;;;18.65;51.44
39449;BME280;25151;45.566;9.382;2023-02-01T06:09:15;100150.69;;;18.65;51.44
39449;BME280;25151;45.566;9.382;2023-02-01T06:12:15;100147.09;;;18.64;51.70
39449;BME280;25151;45.566;9.382;2023-02-01T06:15:16;100141.50;;;18.64;51.60
39449;BME280;25151;45.566;9.382;2023-02-01T06:18:17;100136.72;;;18.65;51.67
39449;BME280;25151;45.566;9.382;2023-02-01T06:21:19;100126.47;;;18.58;51.52
39449;BME280;25151;45.566;9.382;2023-02-01T06:24:23;100128.41;;;18.61;51.82
39449;BME280;25151;45.566;9.382;2023-02-01T06:27:25;100137.91;;;18.64;51.59
39449;BME280;25151;45.566;9.382;2023-02-01T06:30:25;100131.63;;;18.60;51.64
39449;BME280;25151;45.566;9.382;2023-02-01T06:33:26;100137.06;;;18.67;51.67
39449;BME280;25151;45.566;9.382;2023-02-01T06:36:27;100144.19;;;18.72;51.63
39449;BME280;25151;45.566;9.382;2023-02-01T06:39:29;100148.94;;;18.75;51.50
39449;BME280;25151;45.566;9.382;2023-02-01T06:42:30;100148.06;;;18.78;51.63
39449;BME280;25151;45.566;9.382;2023-02-01T06:45:31;100148.78;;;18.82;51.52
39449;BME280;25151;45.566;9.382;2023-02-01T06:48:32;100159.91;;;18.85;51.46
39449;BME280;25151;45.566;9.382;2023-02-01T06:51:33;100157.38;;;18.91;51.50
39449;BME280;25151;45.566;9.382;2023-02-01T06:54:34;100165.25;;;18.96;51.42
39449;BME280;25151;45.566;9.382;2023-02-01T06:57:37;100174.72;;;19.02;51.43
39449;BME280;25151;45.566;9.382;2023-02-01T07:00:38;100182.59;;;19.07;51.44
39449;BME280;25151;45.566;9.382;2023-02-01T07:03:39;100179.34;;;19.12;51.33
39449;BME280;25151;45.566;9.382;2023-02-01T07:06:40;100181.63;;;19.17;51.30
39449;BME280;25151;45.566;9.382;2023-02-01T07:09:41;100193.50;;;19.22;51.33
39449;BME280;25151;45.566;9.382;2023-02-01T07:12:41;100202.09;;;19.31;51.26
39449;BME280;25151;45.566;9.382;2023-02-01T07:15:42;100206.38;;;19.35;51.16
39449;BME280;25151;45.566;9.382;2023-02-01T07:18:43;100215.41;;;19.43;51.00
39449;BME280;25151;45.566;9.382;2023-02-01T07:21:44;100218.50;;;19.49;51.08
39449;BME280;25151;45.566;9.382;2023-02-01T07:24:44;100218.78;;;19.54;50.89
39449;BME280;25151;45.566;9.382;2023-02-01T07:27:45;100212.66;;;19.59;50.91
39449;BME280;25151;45.566;9.382;2023-02-01T07:30:46;100209.81;;;19.63;50.74
39449;BME280;25151;45.566;9.382;2023-02-01T07:33:51;100202.94;;;19.68;50.72
39449;BME280;25151;45.566;9.382;2023-02-01T07:36:55;100197.19;;;19.75;50.71
39449;BME280;25151;45.566;9.382;2023-02-01T07:39:56;100183.56;;;19.77;50.73
39449;BME280;25151;45.566;9.382;2023-02-01T07:42:57;100192.22;;;19.82;50.63
39449;BME280;25151;45.566;9.382;2023-02-01T07:45:58;100212.16;;;19.84;50.51
39449;BME280;25151;45.566;9.382;2023-02-01T07:48:58;100204.88;;;19.87;50.25
39449;BME280;25151;45.566;9.382;2023-02-01T07:51:59;100196.00;;;19.92;50.31
39449;BME280;25151;45.566;9.382;2023-02-01T07:55:00;100187.25;;;19.90;50.65
39449;BME280;25151;45.566;9.382;2023-02-01T07:58:00;100202.47;;;19.89;50.29
39449;BME280;25151;45.566;9.382;2023-02-01T08:01:01;100218.38;;;19.92;50.14
39449;BME280;25151;45.566;9.382;2023-02-01T08:04:20;100226.34;;;19.94;50.24
39449;BME280;25151;45.566;9.382;2023-02-01T08:07:20;100228.69;;;19.95;50.22
39449;BME280;25151;45.566;9.382;2023-02-01T08:10:22;100230.28;;;19.96;49.98
39449;BME280;25151;45.566;9.382;2023-02-01T08:13:22;100217.50;;;19.95;50.05
39449;BME280;25151;45.566;9.382;2023-02-01T08:16:24;100219.09;;;19.96;50.10
39449;BME280;25151;45.566;9.382;2023-02-01T08:19:25;100207.13;;;19.96;49.90
39449;BME280;25151;45.566;9.382;2023-02-01T08:22:25;100231.84;;;19.97;49.90
39449;BME280;25151;45.566;9.382;2023-02-01T08:25:26;100225.47;;;19.97;49.77
39449;BME280;25151;45.566;9.382;2023-02-01T08:28:27;100221.44;;;19.98;49.97
39449;BME280;25151;45.566;9.382;2023-02-01T08:31:29;100235.81;;;20.00;49.84
39449;BME280;25151;45.566;9.382;2023-02-01T08:34:29;100240.97;;;20.01;49.88
39449;BME280;25151;45.566;9.382;2023-02-01T08:37:30;100230.09;;;20.03;50.17
39449;BME280;25151;45.566;9.382;2023-02-01T08:40:32;100232.41;;;20.08;50.07
39449;BME280;25151;45.566;9.382;2023-02-01T08:43:33;100232.31;;;20.12;49.85
39449;BME280;25151;45.566;9.382;2023-02-01T08:46:34;100233.44;;;20.14;49.70
39449;BME280;25151;45.566;9.382;2023-02-01T08:49:34;100229.78;;;20.18;49.68
39449;BME280;25151;45.566;9.382;2023-02-01T08:52:35;100221.75;;;20.20;49.78
39449;BME280;25151;45.566;9.382;2023-02-01T08:55:35;100217.72;;;20.21;49.63
39449;BME280;25151;45.566;9.382;2023-02-01T08:58:36;100218.50;;;20.21;49.80
39449;BME280;25151;45.566;9.382;2023-02-01T09:01:37;100222.06;;;20.22;49.62
39449;BME280;25151;45.566;9.382;2023-02-01T09:04:37;100223.63;;;20.23;49.55
39449;BME280;25151;45.566;9.382;2023-02-01T09:07:38;100225.25;;;20.24;49.47
39449;BME280;25151;45.566;9.382;2023-02-01T09:10:39;100219.28;;;20.22;49.40
39449;BME280;25151;45.566;9.382;2023-02-01T09:13:42;100215.69;;;20.21;49.55
39449;BME280;25151;45.566;9.382;2023-02-01T09:16:43;100227.22;;;20.23;49.25
39449;BME280;25151;45.566;9.382;2023-02-01T09:19:43;100225.25;;;20.24;49.37
39449;BME280;25151;45.566;9.382;2023-02-01T09:22:44;100230.84;;;20.24;49.26
39449;BME280;25151;45.566;9.382;2023-02-01T09:25:45;100224.00;;;20.25;49.54
39449;BME280;25151;45.566;9.382;2023-02-01T09:28:45;100231.09;;;20.29;49.14
39449;BME280;25151;45.566;9.382;2023-02-01T09:31:46;100221.47;;;20.30;49.14
39449;BME280;25151;45.566;9.382;2023-02-01T09:34:46;100229.44;;;20.32;49.19
39449;BME280;25151;45.566;9.382;2023-02-01T09:37:47;100229.44;;;20.32;49.29
39449;BME280;25151;45.566;9.382;2023-02-01T09:40:47;100230.22;;;20.32;49.28
39449;BME280;25151;45.566;9.382;2023-02-01T09:46:55;100232.25;;;20.32;49.00
39449;BME280;25151;45.566;9.382;2023-02-01T09:50:09;100229.25;;;20.39;49.00
39449;BME280;25151;45.566;9.382;2023-02-01T09:53:27;100228.38;;;20.42;48.82
39449;BME280;25151;45.566;9.382;2023-02-01T10:00:05;100225.06;;;20.47;48.65
39449;BME280;25151;45.566;9.382;2023-02-01T10:03:11;100225.41;;;20.49;48.59
39449;BME280;25151;45.566;9.382;2023-02-01T10:13:08;100215.59;;;20.57;48.65
39449;BME280;25151;45.566;9.382;2023-02-01T10:16:39;100214.38;;;20.58;48.68
39449;BME280;25151;45.566;9.382;2023-02-01T10:20:23;100212.72;;;20.61;48.54
39449;BME280;25151;45.566;9.382;2023-02-01T10:27:20;100206.94;;;20.68;48.69
39449;BME280;25151;45.566;9.382;2023-02-01T10:30:25;100202.13;;;20.69;48.36
39449;BME280;25151;45.566;9.382;2023-02-01T10:33:37;100215.56;;;20.74;48.58
39449;BME280;25151;45.566;9.382;2023-02-01T10:36:42;100213.13;;;20.76;48.61
39449;BME280;25151;45.566;9.382;2023-02-01T10:39:49;100213.81;;;20.80;48.62
39449;BME280;25151;45.566;9.382;2023-02-01T10:43:02;100208.22;;;20.80;48.49
39449;BME280;25151;45.566;9.382;2023-02-01T10:46:03;100209.00;;;20.80;48.33
39449;BME280;25151;45.566;9.382;2023-02-01T10:49:05;100198.56;;;20.81;48.40
39449;BME280;25151;45.566;9.382;2023-02-01T10:52:17;100203.41;;;20.80;48.12
39449;BME280;25151;45.566;9.382;2023-02-01T10:58:30;100211.25;;;20.85;47.94
39449;BME280;25151;45.566;9.382;2023-02-01T11:01:37;100215.63;;;20.86;48.21
39449;BME280;25151;45.566;9.382;2023-02-01T11:04:39;100216.78;;;20.89;48.12
39449;BME280;25151;45.566;9.382;2023-02-01T11:07:49;100215.03;;;20.95;48.11
39449;BME280;25151;45.566;9.382;2023-02-01T11:11:02;100212.44;;;21.01;48.18
39449;BME280;25151;45.566;9.382;2023-02-01T11:14:14;100197.88;;;21.06;48.02
39449;BME280;25151;45.566;9.382;2023-02-01T11:23:27;100190.41;;;21.16;48.05
39449;BME280;25151;45.566;9.382;2023-02-01T11:26:31;100181.44;;;21.21;47.89
39449;BME280;25151;45.566;9.382;2023-02-01T11:29:38;100178.63;;;21.21;48.07
39449;BME280;25151;45.566;9.382;2023-02-01T11:32:40;100170.22;;;21.21;48.12
39449;BME280;25151;45.566;9.382;2023-02-01T11:35:41;100174.94;;;21.24;47.98
39449;BME280;25151;45.566;9.382;2023-02-01T11:42:15;100163.28;;;21.25;47.91
39449;BME280;25151;45.566;9.382;2023-02-01T11:45:24;100156.47;;;21.26;48.06
39449;BME280;25151;45.566;9.382;2023-02-01T11:48:27;100161.25;;;21.26;48.20
39449;BME280;25151;45.566;9.382;2023-02-01T11:51:44;100156.88;;;21.25;48.04
39449;BME280;25151;45.566;9.382;2023-02-01T11:55:01;100158.03;;;21.27;48.25
39449;BME280;25151;45.566;9.382;2023-02-01T12:04:26;100128.41;;;21.26;48.19
39449;BME280;25151;45.566;9.382;2023-02-01T12:11:20;100120.31;;;21.28;48.31
39449;BME280;25151;45.566;9.382;2023-02-01T12:17:41;100119.53;;;21.28;48.24
39449;BME280;25151;45.566;9.382;2023-02-01T12:21:06;100119.53;;;21.28;48.16
39449;BME280;25151;45.566;9.382;2023-02-01T12:24:40;100105.16;;;21.26;48.57
39449;BME280;25151;45.566;9.382;2023-02-01T12:31:34;100087.13;;;21.27;48.40
39449;BME280;25151;45.566;9.382;2023-02-01T12:35:04;100087.56;;;21.25;48.38
39449;BME280;25151;45.566;9.382;2023-02-01T12:38:18;100086.78;;;21.25;48.30
39449;BME280;25151;45.566;9.382;2023-02-01T12:47:45;100079.59;;;21.24;48.27
39449;BME280;25151;45.566;9.382;2023-02-01T12:50:51;100082.41;;;21.24;48.35
39449;BME280;25151;45.566;9.382;2023-02-01T12:54:26;100076.34;;;21.25;48.37
39449;BME280;25151;45.566;9.382;2023-02-01T12:57:34;100068.59;;;21.29;48.66
39449;BME280;25151;45.566;9.382;2023-02-01T13:00:41;100069.72;;;21.32;48.51
39449;BME280;25151;45.566;9.382;2023-02-01T13:03:58;100068.88;;;21.35;48.30
39449;BME280;25151;45.566;9.382;2023-02-01T13:07:21;100067.28;;;21.34;48.55
39449;BME280;25151;45.566;9.382;2023-02-01T13:10:48;100066.91;;;21.32;48.56
39449;BME280;25151;45.566;9.382;2023-02-01T13:17:25;100050.09;;;21.32;48.55
39449;BME280;25151;45.566;9.382;2023-02-01T13:23:50;100043.34;;;21.29;48.57
39449;BME280;25151;45.566;9.382;2023-02-01T13:26:55;100045.06;;;21.27;48.87
39449;BME280;25151;45.566;9.382;2023-02-01T13:33:28;100035.41;;;21.28;48.63
39449;BME280;25151;45.566;9.382;2023-02-01T13:43:35;100025.75;;;21.29;48.61
39449;BME280;25151;45.566;9.382;2023-02-01T13:46:43;100022.94;;;21.29;48.55
39449;BME280;25151;45.566;9.382;2023-02-01T13:49:46;100020.59;;;21.27;48.97
39449;BME280;25151;45.566;9.382;2023-02-01T13:56:20;100020.34;;;21.22;48.72
39449;BME280;25151;45.566;9.382;2023-02-01T14:08:43;100022.50;;;21.05;48.83
39449;BME280;25151;45.566;9.382;2023-02-01T14:15:19;100024.97;;;21.03;49.23
39449;BME280;25151;45.566;9.382;2023-02-01T14:21:51;100013.97;;;20.96;49.11
39449;BME280;25151;45.566;9.382;2023-02-01T14:24:58;100012.84;;;20.93;49.03
39449;BME280;25151;45.566;9.382;2023-02-01T14:27:59;100010.38;;;20.95;49.01
39449;BME280;25151;45.566;9.382;2023-02-01T14:31:14;100015.63;;;20.93;48.95
39449;BME280;25151;45.566;9.382;2023-02-01T14:34:34;100023.72;;;20.91;48.99
39449;BME280;25151;45.566;9.382;2023-02-01T14:37:38;100021.81;;;20.88;48.74
39449;BME280;25151;45.566;9.382;2023-02-01T14:40:40;100017.09;;;20.85;48.90
39449;BME280;25151;45.566;9.382;2023-02-01T14:53:35;100020.19;;;20.74;49.30
39449;BME280;25151;45.566;9.382;2023-02-01T14:56:37;100021.00;;;20.75;49.16
39449;BME280;25151;45.566;9.382;2023-02-01T14:59:39;100023.47;;;20.73;48.97
39449;BME280;25151;45.566;9.382;2023-02-01T15:02:41;100019.97;;;20.69;49.17
39449;BME280;25151;45.566;9.382;2023-02-01T15:05:43;100017.19;;;20.69;49.04
39449;BME280;25151;45.566;9.382;2023-02-01T15:08:44;100011.66;;;20.65;49.60
39449;BME280;25151;45.566;9.382;2023-02-01T15:15:14;100011.44;;;20.59;49.26
39449;BME280;25151;45.566;9.382;2023-02-01T15:18:17;100014.16;;;20.63;49.25
39449;BME280;25151;45.566;9.382;2023-02-01T15:21:21;100012.13;;;20.63;49.24
39449;BME280;25151;45.566;9.382;2023-02-01T15:24:26;100014.94;;;20.63;49.23
39449;BME280;25151;45.566;9.382;2023-02-01T15:27:28;100017.38;;;20.61;49.35
39449;BME280;25151;45.566;9.382;2023-02-01T15:30:31;100018.94;;;20.62;49.29
39449;BME280;25151;45.566;9.382;2023-02-01T15:33:32;100017.38;;;20.61;49.55
39449;BME280;25151;45.566;9.382;2023-02-01T15:36:33;100010.53;;;20.62;49.32
39449;BME280;25151;45.566;9.382;2023-02-01T15:39:35;100006.16;;;20.61;49.48
39449;BME280;25151;45.566;9.382;2023-02-01T15:42:49;100016.50;;;20.65;49.75
39449;BME280;25151;45.566;9.382;2023-02-01T15:45:51;100013.34;;;20.62;49.46
39449;BME280;25151;45.566;9.382;2023-02-01T15:48:53;100011.78;;;20.61;49.88
39449;BME280;25151;45.566;9.382;2023-02-01T15:51:59;100024.53;;;20.62;49.88
39449;BME280;25151;45.566;9.382;2023-02-01T15:55:04;100035.44;;;20.60;49.78
39449;BME280;25151;45.566;9.382;2023-02-01T15:58:09;100025.44;;;20.59;50.13
39449;BME280;25151;45.566;9.382;2023-02-01T16:01:14;100029.47;;;20.58;50.30
39449;BME280;25151;45.566;9.382;2023-02-01T16:04:25;100041.03;;;20.60;50.11
39449;BME280;25151;45.566;9.382;2023-02-01T16:07:32;100047.88;;;20.59;50.27
39449;BME280;25151;45.566;9.382;2023-02-01T16:10:39;100046.28;;;20.58;50.22
39449;BME280;25151;45.566;9.382;2023-02-01T16:13:41;100044.72;;;20.57;50.46
39449;BME280;25151;45.566;9.382;2023-02-01T16:16:42;100045.94;;;20.56;50.35
39449;BME280;25151;45.566;9.382;2023-02-01T16:19:42;100042.47;;;20.52;50.60
39449;BME280;25151;45.566;9.382;2023-02-01T16:22:43;100051.19;;;20.54;50.69
39449;BME280;25151;45.566;9.382;2023-02-01T16:25:44;100049.63;;;20.53;50.60
39449;BME280;25151;45.566;9.382;2023-02-01T16:28:45;100048.06;;;20.52;50.81
39449;BME280;25151;45.566;9.382;2023-02-01T16:31:48;100052.09;;;20.51;50.48
39449;BME280;25151;45.566;9.382;2023-02-01T16:34:49;100049.72;;;20.50;50.67
39449;BME280;25151;45.566;9.382;2023-02-01T16:37:49;100060.50;;;20.51;50.89
39449;BME280;25151;45.566;9.382;2023-02-01T16:40:50;100054.53;;;20.49;50.87
39449;BME280;25151;45.566;9.382;2023-02-01T16:43:52;100051.38;;;20.47;51.03
39449;BME280;25151;45.566;9.382;2023-02-01T16:46:53;100058.56;;;20.48;50.86
39449;BME280;25151;45.566;9.382;2023-02-01T16:49:54;100053.06;;;20.45;50.81
39449;BME280;25151;45.566;9.382;2023-02-01T16:52:55;100066.59;;;20.46;50.82
39449;BME280;25151;45.566;9.382;2023-02-01T16:55:56;100071.78;;;20.48;50.78
39449;BME280;25151;45.566;9.382;2023-02-01T16:59:03;100062.00;;;20.39;50.68
39449;BME280;25151;45.566;9.382;2023-02-01T17:02:03;100074.00;;;20.40;50.58
39449;BME280;25151;45.566;9.382;2023-02-01T17:05:05;100080.47;;;20.37;50.57
39449;BME280;25151;45.566;9.382;2023-02-01T17:08:06;100088.41;;;20.38;50.75
39449;BME280;25151;45.566;9.382;2023-02-01T17:11:10;100087.63;;;20.38;50.52
39449;BME280;25151;45.566;9.382;2023-02-01T17:14:20;100093.22;;;20.38;50.69
39449;BME280;25151;45.566;9.382;2023-02-01T17:17:21;100095.63;;;20.39;50.74
39449;BME280;25151;45.566;9.382;2023-02-01T17:20:24;100108.94;;;20.35;50.67
39449;BME280;25151;45.566;9.382;2023-02-01T17:23:28;100098.59;;;20.32;50.49
39449;BME280;25151;45.566;9.382;2023-02-01T17:26:29;100105.84;;;20.30;50.27
39449;BME280;25151;45.566;9.382;2023-02-01T17:29:29;100107.88;;;20.29;50.18
39449;BME280;25151;45.566;9.382;2023-02-01T17:32:30;100107.09;;;20.29;50.28
39449;BME280;25151;45.566;9.382;2023-02-01T17:35:31;100100.78;;;20.25;50.55
39449;BME280;25151;45.566;9.382;2023-02-01T17:38:32;100102.38;;;20.26;50.31
39449;BME280;25151;45.566;9.382;2023-02-01T17:41:35;100117.16;;;20.26;50.35
39449;BME280;25151;45.566;9.382;2023-02-01T17:44:36;100116.03;;;20.24;50.27
39449;BME280;25151;45.566;9.382;2023-02-01T17:47:37;100123.19;;;20.25;49.99
39449;BME280;25151;45.566;9.382;2023-02-01T17:50:38;100117.25;;;20.23;50.23
39449;BME280;25151;45.566;9.382;2023-02-01T17:53:38;100118.47;;;20.22;50.29
39449;BME280;25151;45.566;9.382;2023-02-01T17:56:39;100122.50;;;20.21;50.31
39449;BME280;25151;45.566;9.382;2023-02-01T17:59:40;100117.78;;;20.18;50.33
39449;BME280;25151;45.566;9.382;2023-02-01T18:02:40;100124.16;;;20.18;50.28